Time;durP1;ratioP1;P1;durP2;ratioP2;P2;SDS_P1;SDS_P2;PMS_P1;PMS_P2;Temp;Humidity;BMP_temperature;BMP_pressure;BME280_temperature;BME280_humidity;BME280_pressure;Samples;Min_cycle;Max_cycle;Signal;HPM_P1;HPM_P2
2023/10/23 00:01:58;;;;;;;;;;;;;;;;;;5111379;28;20328;-74
2023/10/23 00:04:24;;;;;;;;;;;;;;;;;;5111660;28;19953;-75
2023/10/23 00:06:50;;;;;;;;;;;;;;;;;;5111894;28;20348;-74
2023/10/23 00:09:16;;;;;;;;;;;;;;;;;;5111117;28;19908;-75
2023/10/23 00:11:42;;;;;;;;;;;;;;;;;;5111628;28;19912;-75
2023/10/23 00:14:19;;;;;;;;;;;;;;;;;;5092002;27;19913;-74
2023/10/23 00:16:45;;;;;;;;;;;;;;;;;;5090972;28;19935;-74
2023/10/23 00:19:11;;;;;;;;;;;;;;;;;;5091277;28;19908;-74
2023/10/23 00:21:37;;;;;;;;;;;;;;;;;;5091406;28;19908;-74
2023/10/23 00:24:03;;;;;;;;;;;;;;;;;;5090849;28;19908;-75
2023/10/23 00:26:29;;;;;;;;;;;;;;;;;;5091509;28;19912;-74
2023/10/23 00:28:55;;;;;;;;;;;;;;;;;;5091104;28;19953;-75
2023/10/23 00:31:21;;;;;;;;;;;;;;;;;;5090690;28;19908;-74
2023/10/23 00:33:47;;;;;;;;;;;;;;;;;;5090973;28;19923;-74
2023/10/23 00:37:35;;;;;;;;;;;;;;;;;;5111651;27;19916;-75
2023/10/23 00:42:28;;;;;;;;;;;;;;;;;;5091979;27;20385;-74
2023/10/23 00:44:54;;;;;;;;;;;;;;;;;;5091118;28;20011;-74
2023/10/23 00:52:46;;;;;;;;;;;;;;;;;;5111699;27;19916;-74
2023/10/23 00:56:56;;;;;;;;;;;;;;;;;;5112565;27;20280;-74
2023/10/23 00:59:22;;;;;;;;;;;;;;;;;;5110085;28;20002;-74
2023/10/23 01:03:34;;;;;;;;;;;;;;;;;;5153533;27;20290;-75
2023/10/23 01:06:00;;;;;;;;;;;;;;;;;;5152719;27;19994;-75
2023/10/23 01:08:26;;;;;;;;;;;;;;;;;;5153164;27;19994;-75
2023/10/23 01:10:52;;;;;;;;;;;;;;;;;;5152811;27;19914;-75
2023/10/23 01:15:17;;;;;;;;;;;;;;;;;;5092091;28;19922;-75
2023/10/23 01:17:43;;;;;;;;;;;;;;;;;;5091408;28;20007;-74
2023/10/23 01:20:09;;;;;;;;;;;;;;;;;;5090926;28;19909;-74
2023/10/23 01:24:53;;;;;;;;;;;;;;;;;;5091563;27;19917;-74
2023/10/23 01:27:19;;;;;;;;;;;;;;;;;;5090953;28;20006;-73
2023/10/23 01:29:45;;;;;;;;;;;;;;;;;;5091322;28;19912;-74
2023/10/23 01:32:11;;;;;;;;;;;;;;;;;;5091336;28;20000;-75
2023/10/23 01:34:37;;;;;;;;;;;;;;;;;;5090789;28;19915;-76
2023/10/23 01:37:03;;;;;;;;;;;;;;;;;;5089927;28;19919;-75
2023/10/23 01:39:29;;;;;;;;;;;;;;;;;;5091187;28;19954;-75
2023/10/23 01:43:24;;;;;;;;;;;;;;;;;;5091520;27;19923;-74
2023/10/23 01:45:50;;;;;;;;;;;;;;;;;;5091604;28;20007;-74
2023/10/23 01:48:16;;;;;;;;;;;;;;;;;;5090972;28;19962;-75
2023/10/23 01:50:42;;;;;;;;;;;;;;;;;;5091318;28;19909;-74
2023/10/23 01:53:08;;;;;;;;;;;;;;;;;;5091188;28;19960;-77
2023/10/23 01:55:33;;;;;;;;;;;;;;;;;;5089491;28;19912;-74
2023/10/23 01:57:59;;;;;;;;;;;;;;;;;;5091121;28;19908;-74
2023/10/23 02:00:25;;;;;;;;;;;;;;;;;;5091074;28;19963;-74
2023/10/23 02:02:51;;;;;;;;;;;;;;;;;;5089656;28;20380;-74
2023/10/23 02:05:17;;;;;;;;;;;;;;;;;;5091140;28;20485;-75
2023/10/23 02:07:43;;;;;;;;;;;;;;;;;;5090767;28;20376;-75
2023/10/23 02:10:09;;;;;;;;;;;;;;;;;;5089645;28;20287;-75
2023/10/23 02:12:35;;;;;;;;;;;;;;;;;;5090913;28;20449;-75
2023/10/23 02:15:03;;;;;;;;;;;;;;;;;;5090445;28;19908;-75
2023/10/23 02:18:11;;;;;;;;;;;;;;;;;;5112661;27;19916;-75
2023/10/23 02:20:37;;;;;;;;;;;;;;;;;;5112033;28;19919;-75
2023/10/23 02:24:58;;;;;;;;;;;;;;;;;;5091944;28;19922;-74
2023/10/23 02:29:47;;;;;;;;;;;;;;;;;;5111880;27;19923;-74
2023/10/23 02:32:14;;;;;;;;;;;;;;;;;;5111731;28;20003;-74
2023/10/23 02:34:42;;;;;;;;;;;;;;;;;;5111697;28;19908;-74
2023/10/23 02:37:08;;;;;;;;;;;;;;;;;;5111226;28;20007;-74
2023/10/23 02:41:58;;;;;;;;;;;;;;;;;;5092330;28;19919;-77
2023/10/23 02:44:24;;;;;;;;;;;;;;;;;;5091163;28;19912;-76
2023/10/23 02:46:50;;;;;;;;;;;;;;;;;;5091300;28;19908;-76
2023/10/23 02:49:16;;;;;;;;;;;;;;;;;;5091351;28;19978;-76
2023/10/23 02:51:43;;;;;;;;;;;;;;;;;;5091172;28;20373;-75
2023/10/23 02:55:22;;;;;;;;;;;;;;;;;;5091864;27;19916;-74
2023/10/23 02:57:48;;;;;;;;;;;;;;;;;;5089853;28;20002;-75
2023/10/23 03:00:13;;;;;;;;;;;;;;;;;;5092002;28;19961;-75
2023/10/23 03:02:39;;;;;;;;;;;;;;;;;;5092120;28;19913;-75
2023/10/23 03:05:05;;;;;;;;;;;;;;;;;;5090968;28;20311;-75
2023/10/23 03:07:31;;;;;;;;;;;;;;;;;;5094117;28;19913;-75
2023/10/23 03:09:57;;;;;;;;;;;;;;;;;;5093016;28;19909;-75
2023/10/23 03:12:23;;;;;;;;;;;;;;;;;;5089714;28;20395;-75
2023/10/23 03:15:19;;;;;;;;;;;;;;;;;;5112676;27;19916;-75
2023/10/23 03:17:45;;;;;;;;;;;;;;;;;;5111740;28;20002;-74
2023/10/23 03:20:11;;;;;;;;;;;;;;;;;;5111301;28;19908;-74
2023/10/23 03:22:38;;;;;;;;;;;;;;;;;;5111686;28;19908;-75
2023/10/23 03:27:29;;;;;;;;;;;;;;;;;;5091798;27;19913;-74
2023/10/23 03:31:36;;;;;;;;;;;;;;;;;;5091705;27;20291;-74
2023/10/23 03:34:01;;;;;;;;;;;;;;;;;;5091029;28;19999;-74
2023/10/23 03:36:27;;;;;;;;;;;;;;;;;;5091279;28;20323;-74
2023/10/23 03:38:53;;;;;;;;;;;;;;;;;;5090122;28;19912;-74
2023/10/23 03:41:19;;;;;;;;;;;;;;;;;;5090832;28;19952;-74
2023/10/23 03:43:45;;;;;;;;;;;;;;;;;;5089919;28;20257;-74
2023/10/23 03:46:11;;;;;;;;;;;;;;;;;;5090811;28;20350;-75
2023/10/23 03:48:37;;;;;;;;;;;;;;;;;;5089823;28;19909;-75
2023/10/23 03:51:03;;;;;;;;;;;;;;;;;;5090986;28;19927;-74
2023/10/23 03:53:29;;;;;;;;;;;;;;;;;;5090635;28;19908;-74
2023/10/23 03:55:55;;;;;;;;;;;;;;;;;;5091043;28;19928;-74
2023/10/23 03:58:21;;;;;;;;;;;;;;;;;;5090908;28;19912;-74
2023/10/23 04:01:19;;;;;;;;;;;;;;;;;;5111801;27;19916;-75
2023/10/23 04:03:45;;;;;;;;;;;;;;;;;;5111743;28;19912;-74
2023/10/23 04:06:10;;;;;;;;;;;;;;;;;;5111644;28;19915;-74
2023/10/23 04:08:37;;;;;;;;;;;;;;;;;;5109978;28;19908;-75
2023/10/23 04:11:03;;;;;;;;;;;;;;;;;;5111563;28;19930;-75
2023/10/23 04:13:29;;;;;;;;;;;;;;;;;;5111602;28;20284;-74
2023/10/23 04:16:34;;;;;;;;;;;;;;;;;;5153127;27;19998;-75
2023/10/23 04:19:49;;;;;;;;;;;;;;;;;;5111865;27;20324;-75
2023/10/23 04:22:15;;;;;;;;;;;;;;;;;;5111622;28;19951;-75
2023/10/23 04:24:41;;;;;;;;;;;;;;;;;;5111887;28;20007;-75
2023/10/23 04:27:07;;;;;;;;;;;;;;;;;;5111953;28;20380;-76
2023/10/23 04:29:33;;;;;;;;;;;;;;;;;;5111254;28;20316;-75
2023/10/23 04:31:59;;;;;;;;;;;;;;;;;;5111733;28;19908;-75
2023/10/23 04:34:25;;;;;;;;;;;;;;;;;;5111490;28;19954;-75
2023/10/23 04:36:51;;;;;;;;;;;;;;;;;;5111045;28;19908;-75
2023/10/23 04:39:17;;;;;;;;;;;;;;;;;;5111377;28;20397;-75
2023/10/23 04:41:43;;;;;;;;;;;;;;;;;;5111337;28;19953;-75
2023/10/23 04:44:09;;;;;;;;;;;;;;;;;;5110909;28;19922;-75
2023/10/23 04:46:35;;;;;;;;;;;;;;;;;;5093064;28;19912;-75
2023/10/23 04:49:00;;;;;;;;;;;;;;;;;;5111186;28;19999;-75
2023/10/23 04:51:26;;;;;;;;;;;;;;;;;;5110729;28;19962;-75
2023/10/23 04:53:52;;;;;;;;;;;;;;;;;;5111126;28;19908;-75
2023/10/23 04:56:18;;;;;;;;;;;;;;;;;;5111000;28;19998;-75
2023/10/23 04:58:44;;;;;;;;;;;;;;;;;;5110607;28;19916;-75
2023/10/23 05:01:10;;;;;;;;;;;;;;;;;;5092682;28;19908;-75
2023/10/23 05:03:36;;;;;;;;;;;;;;;;;;5110937;28;20009;-74
2023/10/23 05:06:02;;;;;;;;;;;;;;;;;;5110914;28;19908;-75
2023/10/23 05:08:28;;;;;;;;;;;;;;;;;;5092597;28;19915;-75
2023/10/23 05:10:54;;;;;;;;;;;;;;;;;;5110452;28;19969;-75
2023/10/23 05:13:20;;;;;;;;;;;;;;;;;;5110966;28;19915;-75
2023/10/23 05:15:46;;;;;;;;;;;;;;;;;;5092457;28;19908;-75
2023/10/23 05:18:12;;;;;;;;;;;;;;;;;;5110030;28;19927;-75
2023/10/23 05:20:38;;;;;;;;;;;;;;;;;;5110583;28;19918;-75
2023/10/23 05:23:04;;;;;;;;;;;;;;;;;;5110688;28;19908;-75
2023/10/23 05:25:30;;;;;;;;;;;;;;;;;;5110140;28;19908;-75
2023/10/23 05:27:56;;;;;;;;;;;;;;;;;;5110493;28;19942;-75
2023/10/23 05:30:22;;;;;;;;;;;;;;;;;;5101461;28;19908;-75
2023/10/23 05:32:48;;;;;;;;;;;;;;;;;;5095150;28;19912;-75
2023/10/23 05:40:33;;;;;;;;;;;;;;;;;;5091088;28;19912;-75
2023/10/23 05:42:59;;;;;;;;;;;;;;;;;;5091526;28;20440;-75
2023/10/23 05:45:25;;;;;;;;;;;;;;;;;;5091381;28;19909;-75
2023/10/23 05:50:06;;;;;;;;;;;;;;;;;;5112118;27;19913;-75
2023/10/23 05:52:32;;;;;;;;;;;;;;;;;;5111748;28;19916;-75
2023/10/23 05:55:04;;;;;;;;;;;;;;;;;;5111285;28;20021;-75
2023/10/23 05:58:19;;;;;;;;;;;;;;;;;;5091582;27;19919;-74
2023/10/23 06:01:24;;;;;;;;;;;;;;;;;;5091235;28;20291;-75
2023/10/23 06:03:50;;;;;;;;;;;;;;;;;;5091388;28;19999;-76
2023/10/23 06:08:54;;;;;;;;;;;;;;;;;;5091124;28;19932;-75
2023/10/23 06:11:20;;;;;;;;;;;;;;;;;;5091380;28;20003;-75
2023/10/23 06:13:46;;;;;;;;;;;;;;;;;;5091300;28;19954;-75
2023/10/23 06:16:12;;;;;;;;;;;;;;;;;;5090862;28;19908;-76
2023/10/23 06:18:38;;;;;;;;;;;;;;;;;;5091332;28;19948;-75
2023/10/23 06:21:04;;;;;;;;;;;;;;;;;;5090834;28;19920;-76
2023/10/23 06:23:30;;;;;;;;;;;;;;;;;;5089883;28;20384;-75
2023/10/23 06:26:55;;;;;;;;;;;;;;;;;;5071265;28;19919;-75
2023/10/23 06:29:20;;;;;;;;;;;;;;;;;;5070942;28;20011;-75
2023/10/23 06:31:46;;;;;;;;;;;;;;;;;;5071294;28;19909;-76
2023/10/23 06:34:12;;;;;;;;;;;;;;;;;;5071328;28;20365;-75
2023/10/23 06:36:41;;;;;;;;;;;;;;;;;;5070760;28;20331;-76
2023/10/23 06:39:07;;;;;;;;;;;;;;;;;;5071156;28;19908;-76
2023/10/23 06:41:33;;;;;;;;;;;;;;;;;;5070913;28;19916;-76
2023/10/23 06:46:16;;;;;;;;;;;;;;;;;;5092081;28;19922;-76
2023/10/23 06:51:12;;;;;;;;;;;;;;;;;;5091072;27;19912;-75
2023/10/23 06:54:57;;;;;;;;;;;;;;;;;;5092147;27;19923;-76
2023/10/23 06:57:23;;;;;;;;;;;;;;;;;;5089729;28;20003;-76
2023/10/23 06:59:50;;;;;;;;;;;;;;;;;;5091306;28;20369;-76
2023/10/23 07:02:16;;;;;;;;;;;;;;;;;;5090004;28;19915;-75
2023/10/23 07:04:42;;;;;;;;;;;;;;;;;;5090863;28;19988;-75
2023/10/23 07:07:08;;;;;;;;;;;;;;;;;;5091156;28;20284;-75
2023/10/23 07:11:48;;;;;;;;;;;;;;;;;;5173561;27;19983;-75
2023/10/23 07:15:00;;;;;;;;;;;;;;;;;;5091504;27;19919;-74
2023/10/23 07:19:05;;;;;;;;;;;;;;;;;;5091259;27;19917;-75
2023/10/23 07:21:31;;;;;;;;;;;;;;;;;;5091439;28;20354;-75
2023/10/23 07:23:57;;;;;;;;;;;;;;;;;;5091305;28;19916;-75
2023/10/23 07:26:23;;;;;;;;;;;;;;;;;;5090907;28;19908;-75
2023/10/23 07:28:50;;;;;;;;;;;;;;;;;;5091254;28;19991;-75
2023/10/23 07:31:16;;;;;;;;;;;;;;;;;;5091097;28;19948;-75
2023/10/23 07:33:42;;;;;;;;;;;;;;;;;;5091123;28;19936;-75
2023/10/23 07:36:49;;;;;;;;;;;;;;;;;;5153258;27;19998;-74
2023/10/23 07:39:18;;;;;;;;;;;;;;;;;;5152575;27;19951;-74
2023/10/23 07:41:43;;;;;;;;;;;;;;;;;;5152860;27;20291;-74
2023/10/23 07:44:10;;;;;;;;;;;;;;;;;;5134313;27;19914;-74
2023/10/23 07:46:36;;;;;;;;;;;;;;;;;;5152473;27;19907;-75
2023/10/23 07:49:02;;;;;;;;;;;;;;;;;;5134239;27;20359;-75
2023/10/23 07:51:28;;;;;;;;;;;;;;;;;;5152725;27;20367;-75
2023/10/23 07:53:54;;;;;;;;;;;;;;;;;;5152387;27;20005;-75
2023/10/23 07:56:20;;;;;;;;;;;;;;;;;;5152510;27;19915;-75
2023/10/23 07:58:46;;;;;;;;;;;;;;;;;;5152752;27;19907;-75
2023/10/23 08:01:12;;;;;;;;;;;;;;;;;;5152187;27;19959;-75
2023/10/23 08:03:38;;;;;;;;;;;;;;;;;;5152776;27;20382;-76
2023/10/23 08:06:04;;;;;;;;;;;;;;;;;;5152454;27;19944;-75
2023/10/23 08:08:30;;;;;;;;;;;;;;;;;;5152075;27;20379;-76
2023/10/23 08:10:56;;;;;;;;;;;;;;;;;;5152696;27;20003;-75
2023/10/23 08:13:22;;;;;;;;;;;;;;;;;;5152253;27;19991;-75
2023/10/23 08:15:49;;;;;;;;;;;;;;;;;;5151775;27;19966;-75
2023/10/23 08:19:46;;;;;;;;;;;;;;;;;;5091768;27;19916;-74
2023/10/23 08:22:12;;;;;;;;;;;;;;;;;;5091016;28;19999;-75
2023/10/23 08:24:38;;;;;;;;;;;;;;;;;;5089969;28;19909;-74
2023/10/23 08:27:04;;;;;;;;;;;;;;;;;;5091267;28;19908;-75
2023/10/23 08:29:30;;;;;;;;;;;;;;;;;;5090818;28;19915;-75
2023/10/23 08:31:57;;;;;;;;;;;;;;;;;;5091166;28;19913;-75
2023/10/23 08:35:02;;;;;;;;;;;;;;;;;;5091459;27;20283;-75
2023/10/23 08:38:51;;;;;;;;;;;;;;;;;;5091547;27;19916;-75
2023/10/23 08:41:17;;;;;;;;;;;;;;;;;;5090054;28;20004;-75
2023/10/23 08:43:43;;;;;;;;;;;;;;;;;;5090848;28;19961;-75
2023/10/23 08:46:09;;;;;;;;;;;;;;;;;;5091560;28;19909;-75
2023/10/23 08:48:37;;;;;;;;;;;;;;;;;;5091262;28;19952;-75
2023/10/23 08:51:03;;;;;;;;;;;;;;;;;;5091220;28;19916;-75
2023/10/23 08:53:29;;;;;;;;;;;;;;;;;;5091096;28;19908;-75
2023/10/23 08:55:55;;;;;;;;;;;;;;;;;;5090730;28;19908;-75
2023/10/23 08:58:22;;;;;;;;;;;;;;;;;;5091054;28;19920;-75
2023/10/23 09:00:47;;;;;;;;;;;;;;;;;;5091032;28;19908;-76
2023/10/23 09:03:13;;;;;;;;;;;;;;;;;;5090513;28;19909;-75
2023/10/23 09:05:39;;;;;;;;;;;;;;;;;;5090892;28;19970;-75
2023/10/23 09:08:05;;;;;;;;;;;;;;;;;;5090797;28;19912;-75
2023/10/23 09:13:07;;;;;;;;;;;;;;;;;;5132834;27;20345;-75
2023/10/23 09:15:33;;;;;;;;;;;;;;;;;;5132174;28;19965;-74
2023/10/23 09:17:59;;;;;;;;;;;;;;;;;;5131837;28;19908;-74
2023/10/23 09:20:26;;;;;;;;;;;;;;;;;;5132149;28;20078;-74
2023/10/23 09:22:52;;;;;;;;;;;;;;;;;;5132133;27;19923;-74
2023/10/23 09:25:18;;;;;;;;;;;;;;;;;;5131807;27;19947;-75
2023/10/23 09:27:44;;;;;;;;;;;;;;;;;;5130744;28;19931;-75
2023/10/23 09:30:10;;;;;;;;;;;;;;;;;;5132004;28;19962;-76
2023/10/23 09:32:37;;;;;;;;;;;;;;;;;;5131357;28;19916;-74
2023/10/23 09:35:02;;;;;;;;;;;;;;;;;;5132132;27;19908;-76
2023/10/23 09:37:28;;;;;;;;;;;;;;;;;;5131931;28;19915;-75
2023/10/23 09:39:54;;;;;;;;;;;;;;;;;;5131399;28;19907;-76
2023/10/23 09:42:20;;;;;;;;;;;;;;;;;;5131650;28;19914;-75
2023/10/23 09:44:46;;;;;;;;;;;;;;;;;;5131684;28;19922;-75
2023/10/23 09:47:12;;;;;;;;;;;;;;;;;;5131196;28;20303;-76
2023/10/23 09:49:38;;;;;;;;;;;;;;;;;;5131525;28;19912;-75
2023/10/23 09:52:04;;;;;;;;;;;;;;;;;;5129717;28;19916;-76
2023/10/23 09:54:30;;;;;;;;;;;;;;;;;;5131465;28;19942;-76
2023/10/23 09:56:56;;;;;;;;;;;;;;;;;;5131414;28;19930;-75
2023/10/23 09:59:22;;;;;;;;;;;;;;;;;;5130955;28;20026;-75
2023/10/23 10:01:48;;;;;;;;;;;;;;;;;;5131312;28;19908;-75
2023/10/23 10:04:14;;;;;;;;;;;;;;;;;;5131348;27;19976;-76
2023/10/23 10:06:40;;;;;;;;;;;;;;;;;;5130888;28;19911;-75
2023/10/23 10:09:12;;;;;;;;;;;;;;;;;;5129950;28;19908;-75
2023/10/23 10:11:38;;;;;;;;;;;;;;;;;;5131097;27;19923;-75
2023/10/23 10:14:04;;;;;;;;;;;;;;;;;;5131016;27;20020;-75
2023/10/23 10:16:30;;;;;;;;;;;;;;;;;;5131109;28;19907;-76
2023/10/23 10:18:56;;;;;;;482.15;283.17;;;;;;;;;;5129798;28;20733;-76
2023/10/23 10:21:23;;;;;;;;;;;;;;;;;;5130562;28;20165;-76
2023/10/23 10:23:51;;;;;;;;;;;;;;;;;;5119412;28;19911;-76
2023/10/23 10:26:18;;;;;;;;;;;;;;;;;;5117182;28;19904;-76
2023/10/23 10:28:44;;;;;;;;;;;;;;;;;;5116673;28;19949;-76
2023/10/23 10:31:10;;;;;;;;;;;;;;;;;;5116960;28;19911;-76
2023/10/23 10:33:38;;;;;;;;;;;;;;;;;;5117034;28;19911;-76
2023/10/23 10:36:04;;;;;;;;;;;;;;;;;;5116568;28;19964;-76
2023/10/23 10:38:30;;;;;;;;;;;;;;;;;;5116951;28;20351;-76
2023/10/23 10:40:56;;;;;;;;;;;;;;;;;;5116847;28;19904;-76
2023/10/23 10:43:22;;;;;;;;;;;;;;;;;;5116464;28;19904;-76
2023/10/23 10:45:48;;;;;;;;;;;;;;;;;;5115494;28;19904;-76
2023/10/23 10:48:15;;;;;;;;;;;;;;;;;;5116353;28;19911;-76
2023/10/23 10:50:41;;;;;;;;;;;;;;;;;;5116640;28;20041;-75
2023/10/23 10:53:07;;;;;;;;;;;;;;;;;;5116699;27;20307;-75
2023/10/23 10:55:33;;;;;;;;;;;;;;;;;;5116706;28;20309;-76
2023/10/23 10:57:59;;;;;;;;;;;;;;;;;;5116557;28;19903;-75
2023/10/23 11:00:25;;;;;;;;;;;;;;;;;;5116579;28;20359;-76
2023/10/23 11:02:51;;;;;;;431.55;265.67;;;;;;;;;;5115730;28;19903;-76
2023/10/23 11:05:17;;;;;;;;;;;;;;;;;;5116342;28;20031;-75
2023/10/23 11:07:43;;;;;;;;;;;;;;;;;;5116601;28;19911;-75
2023/10/23 11:10:09;;;;;;;;;;;;;;;;;;5116091;28;19908;-75
2023/10/23 11:12:35;;;;;;;;;;;;;;;;;;5116097;28;19963;-75
2023/10/23 11:15:04;;;;;;;;;;;;;;;;;;5116242;28;19904;-75
2023/10/23 11:17:30;;;;;;;;;;;;;;;;;;5114478;28;19990;-75
2023/10/23 11:19:56;;;;;;;;;;;;;;;;;;5114833;28;20056;-75
2023/10/23 11:22:22;;;;;;;;;;;;;;;;;;5116184;28;19904;-75
2023/10/23 11:24:48;;;;;;;;;;;;;;;;;;5115648;28;19907;-75
2023/10/23 11:27:14;;;;;;;;;;;;;;;;;;5116117;28;19903;-75
2023/10/23 11:29:40;;;;;;;;;;;;;;;;;;5115975;28;19907;-75
2023/10/23 11:32:06;;;;;;;;;;;;;;;;;;5115612;28;19915;-75
2023/10/23 11:34:32;;;;;;;;;;;;;;;;;;5114987;28;19903;-75
2023/10/23 11:36:58;;;;;;;;;;;;;;;;;;5115840;28;19904;-75
2023/10/23 11:39:24;;;;;;;;;;;;;;;;;;5114156;28;19903;-75
2023/10/23 11:41:50;;;;;;;;;;;;;;;;;;5115616;28;19926;-75
2023/10/23 11:44:15;;;;;;;;;;;;;;;;;;5114363;28;19970;-75
2023/10/23 11:46:41;;;;;;;;;;;;;;;;;;5115191;28;19904;-75
2023/10/23 11:49:08;;;;;;;;;;;;;;;;;;5115473;28;19907;-75
2023/10/23 11:51:34;;;;;;;;;;;;;;;;;;5114966;28;19912;-75
2023/10/23 11:54:03;;;;;;;;;;;;;;;;;;5115424;28;19904;-75
2023/10/23 11:56:29;;;;;;;;;;;;;;;;;;5115425;28;19911;-75
2023/10/23 11:58:55;;;;;;;537.63;298.95;;;;;;;;;;5113855;28;20392;-74
2023/10/23 12:01:21;;;;;;;;;;;;;;;;;;5113980;28;20559;-74
2023/10/23 12:03:47;;;;;;;535.50;297.27;;;;;;;;;;5114315;28;20467;-75
2023/10/23 12:06:14;;;;;;;;;;;;;;;;;;5114738;28;20111;-75
2023/10/23 12:08:40;;;;;;;595.75;303.70;;;;;;;;;;5113356;28;20491;-75
2023/10/23 12:11:06;;;;;;;;;;;;;;;;;;5114791;28;20126;-76
2023/10/23 12:13:32;;;;;;;414.70;230.48;;;;;;;;;;5114669;28;19954;-75
2023/10/23 12:15:58;;;;;;;;;;;;;;;;;;5115138;28;20043;-75
2023/10/23 12:18:26;;;;;;;542.47;302.87;;;;;;;;;;5112801;28;20388;-75
2023/10/23 12:20:52;;;;;;;459.20;240.40;;;;;;;;;;5114430;28;20054;-75
2023/10/23 12:23:18;;;;;;;;;;;;;;;;;;5115111;28;20026;-75
2023/10/23 12:25:44;;;;;;;;;;;;;;;;;;5114805;28;19994;-75
2023/10/23 12:28:10;;;;;;;598.47;303.42;;;;;;;;;;5112916;28;20376;-75
2023/10/23 12:30:36;;;;;;;;;;;;;;;;;;5114660;28;20451;-75
2023/10/23 12:33:03;;;;;;;;;;;;;;;;;;5114632;28;19958;-75
2023/10/23 12:35:29;;;;;;;;;;;;;;;;;;5114314;28;19998;-75
2023/10/23 12:37:55;;;;;;;584.37;304.10;;;;;;;;;;5112933;28;20443;-75
2023/10/23 12:40:21;;;;;;;;;;;;;;;;;;5113298;28;20384;-75
2023/10/23 12:42:47;;;;;;;511.23;286.27;;;;;;;;;;5113952;28;19904;-75
2023/10/23 12:45:13;;;;;;;;;;;;;;;;;;5114459;28;20026;-75
2023/10/23 12:47:39;;;;;;;;;;;;;;;;;;5114260;28;19903;-75
2023/10/23 12:50:05;;;;;;;;;;;;;;;;;;5112825;28;19908;-75
2023/10/23 12:52:31;;;;;;;506.50;290.90;;;;;;;;;;5113790;28;20887;-75
2023/10/23 12:54:57;;;;;;;;;;;;;;;;;;5113957;28;20023;-75
2023/10/23 12:57:23;;;;;;;;;;;;;;;;;;5114357;28;20370;-76
2023/10/23 12:59:49;;;;;;;;;;;;;;;;;;5114339;28;19949;-76
2023/10/23 13:02:15;;;;;;;;;;;;;;;;;;5113960;28;19907;-76
2023/10/23 13:04:40;;;;;;;;;;;;;;;;;;5114642;28;19904;-76
2023/10/23 13:07:06;;;;;;;;;;;;;;;;;;5114294;28;19943;-75
2023/10/23 13:09:32;;;;;;;;;;;;;;;;;;5113877;28;19903;-75
2023/10/23 13:11:58;;;;;;;;;;;;;;;;;;5113898;28;19960;-76
2023/10/23 13:14:24;;;;;;;;;;;;;;;;;;5114209;28;19950;-75
2023/10/23 13:16:50;;;;;;;516.40;291.40;;;;;;;;;;5111184;28;20400;-76
2023/10/23 13:19:17;;;;;;;;;;;;;;;;;;5114085;28;20104;-76
2023/10/23 13:21:43;;;;;;;567.00;299.33;;;;;;;;;;5111390;28;20505;-76
2023/10/23 13:24:11;;;;;;;;;;;;;;;;;;5113742;28;20112;-75
2023/10/23 13:26:38;;;;;;;513.28;291.75;;;;;;;;;;5113280;28;20475;-75
2023/10/23 13:29:04;;;;;;;;;;;;;;;;;;5114538;28;20024;-76
2023/10/23 13:31:30;;;;;;;570.33;301.80;;;;;;;;;;5112385;28;20887;-75
2023/10/23 13:33:56;;;;;;;;;;;;;;;;;;5113951;28;20468;-75
2023/10/23 13:36:22;;;;;;;;;;;;;;;;;;5114033;28;19904;-76
2023/10/23 13:38:48;;;;;;;377.00;210.30;;;;;;;;;;5113533;28;19931;-76
2023/10/23 13:41:14;;;;;;;;;;;;;;;;;;5113885;28;20058;-76
2023/10/23 13:43:40;;;;;;;;;;;;;;;;;;5114033;28;19943;-76
2023/10/23 13:46:07;;;;;;;;;;;;;;;;;;5113543;28;20400;-76
2023/10/23 13:48:33;;;;;;;521.70;297.87;;;;;;;;;;5113390;28;20388;-76
2023/10/23 13:50:59;;;;;;;;;;;;;;;;;;5113831;28;20048;-76
2023/10/23 13:53:25;;;;;;;591.00;302.48;;;;;;;;;;5111790;28;20925;-76
2023/10/23 13:55:51;;;;;;;;;;;;;;;;;;5113950;28;20023;-76
2023/10/23 13:58:18;;;;;;;;;;;;;;;;;;5114629;28;19904;-76
2023/10/23 14:00:44;;;;;;;;;;;;;;;;;;5117844;28;19928;-76
2023/10/23 14:03:10;;;;;;;;;;;;;;;;;;5117745;28;19950;-76
2023/10/23 14:05:39;;;;;;;;;;;;;;;;;;5117191;28;19943;-76
2023/10/23 14:08:05;;;;;;;;;;;;;;;;;;5117565;28;19915;-76
2023/10/23 14:10:31;;;;;;;;;;;;;;;;;;5117564;28;19903;-76
2023/10/23 14:12:57;;;;;;;;;;;;;;;;;;5116887;28;20252;-76
2023/10/23 14:15:23;;;;;;;;;;;;;;;;;;5117326;28;19911;-76
2023/10/23 14:17:49;;;;;;;;;;;;;;;;;;5116009;28;19903;-76
2023/10/23 14:20:15;;;;;;;;;;;;;;;;;;5117201;28;20442;-76
2023/10/23 14:22:41;;;;;;;;;;;;;;;;;;5117246;28;19907;-76
2023/10/23 14:25:07;;;;;;;;;;;;;;;;;;5117269;28;19908;-76
2023/10/23 14:27:33;;;;;;;558.25;303.52;;;;;;;;;;5115545;28;20925;-76
2023/10/23 14:29:59;;;;;;;;;;;;;;;;;;5117263;28;20020;-76
2023/10/23 14:32:25;;;;;;;;;;;;;;;;;;5116935;28;20298;-76
2023/10/23 14:34:51;;;;;;;;;;;;;;;;;;5115355;28;20390;-76
2023/10/23 14:37:17;;;;;;;;;;;;;;;;;;5115643;28;20421;-76
2023/10/23 14:39:43;;;;;;;;;;;;;;;;;;5117022;28;19904;-76
2023/10/23 14:42:09;;;;;;;;;;;;;;;;;;5116307;28;19903;-76
2023/10/23 14:44:35;;;;;;;;;;;;;;;;;;5117072;28;19903;-76
2023/10/23 14:47:01;;;;;;;;;;;;;;;;;;5115525;28;19968;-76
2023/10/23 14:49:27;;;;;;;;;;;;;;;;;;5116361;28;20382;-76
2023/10/23 14:51:53;;;;;;;;;;;;;;;;;;5115386;28;19912;-76
2023/10/23 14:54:19;;;;;;;;;;;;;;;;;;5116607;28;19904;-76
2023/10/23 14:56:46;;;;;;;;;;;;;;;;;;5116891;28;19908;-76
2023/10/23 14:59:11;;;;;;;;;;;;;;;;;;5115372;28;20340;-76
2023/10/23 15:01:37;;;;;;;;;;;;;;;;;;5116138;28;19949;-76
2023/10/23 15:04:03;;;;;;;;;;;;;;;;;;5116541;28;20338;-76
2023/10/23 15:06:29;;;;;;;;;;;;;;;;;;5116377;28;19904;-76
2023/10/23 15:08:55;;;;;;;;;;;;;;;;;;5115924;28;19908;-76
2023/10/23 15:11:22;;;;;;;;;;;;;;;;;;5115991;28;19919;-76
2023/10/23 15:13:48;;;;;;;;;;;;;;;;;;5115350;28;19951;-76
2023/10/23 15:16:14;;;;;;;;;;;;;;;;;;5114369;28;19910;-76
2023/10/23 15:18:40;;;;;;;;;;;;;;;;;;5116208;28;19904;-76
2023/10/23 15:21:06;;;;;;;;;;;;;;;;;;5116326;28;19908;-75
2023/10/23 15:23:31;;;;;;;;;;;;;;;;;;5115566;28;19904;-76
2023/10/23 15:25:57;;;;;;;;;;;;;;;;;;5114681;28;19911;-76
2023/10/23 15:28:23;;;;;;;;;;;;;;;;;;5115714;28;20382;-75
2023/10/23 15:30:55;;;;;;;;;;;;;;;;;;5115445;28;19911;-76
2023/10/23 15:33:21;;;;;;;;;;;;;;;;;;5115751;28;20404;-76
2023/10/23 15:35:51;;;;;;;;;;;;;;;;;;5115838;28;19986;-75
2023/10/23 15:38:17;;;;;;;;;;;;;;;;;;5115493;28;19927;-75
2023/10/23 15:40:43;;;;;;;;;;;;;;;;;;5115701;28;20348;-76
2023/10/23 15:43:09;;;;;;;;;;;;;;;;;;5115787;28;20439;-75
2023/10/23 15:45:35;;;;;;;;;;;;;;;;;;5115295;28;20413;-75
2023/10/23 15:48:01;;;;;;;;;;;;;;;;;;5115891;28;20360;-76
2023/10/23 15:50:27;;;;;;;;;;;;;;;;;;5115454;28;20270;-75
2023/10/23 15:52:52;;;;;;;;;;;;;;;;;;5113696;28;20279;-75
2023/10/23 15:55:19;;;;;;;;;;;;;;;;;;5114224;28;20321;-76
2023/10/23 15:57:44;;;;;;;;;;;;;;;;;;5115024;28;19911;-76
2023/10/23 16:00:11;;;;;;;;;;;;;;;;;;5115303;28;19904;-75
2023/10/23 16:02:36;;;;;;;;;;;;;;;;;;5115360;28;19903;-75
2023/10/23 16:05:04;;;;;;;;;;;;;;;;;;5114935;28;19915;-75
2023/10/23 16:07:30;;;;;;;;;;;;;;;;;;5115275;28;19903;-75
2023/10/23 16:09:56;;;;;;;;;;;;;;;;;;5113930;28;19911;-75
2023/10/23 16:12:23;;;;;;;;;;;;;;;;;;5113178;28;19916;-75
2023/10/23 16:14:49;;;;;;;;;;;;;;;;;;5115108;28;19910;-76
2023/10/23 16:17:15;;;;;;;;;;;;;;;;;;5115034;28;19903;-75
2023/10/23 16:19:41;;;;;;;;;;;;;;;;;;5113310;28;20348;-76
2023/10/23 16:22:07;;;;;;;;;;;;;;;;;;5114470;28;20241;-75
2023/10/23 16:24:33;;;;;;;;;;;;;;;;;;5115332;28;19917;-75
2023/10/23 16:26:59;;;;;;;;;;;;;;;;;;5114543;28;19903;-75
2023/10/23 16:29:25;;;;;;;;;;;;;;;;;;5114833;28;19954;-75
2023/10/23 16:31:51;;;;;;;;;;;;;;;;;;5113477;28;19908;-75
2023/10/23 16:34:17;;;;;;;;;;;;;;;;;;5113064;28;19911;-75
2023/10/23 16:36:43;;;;;;;;;;;;;;;;;;5114805;28;19970;-75
2023/10/23 16:39:10;;;;;;;;;;;;;;;;;;5114680;28;19911;-75
2023/10/23 16:41:37;;;;;;;;;;;;;;;;;;5114103;28;19956;-75
2023/10/23 16:44:03;;;;;;;;;;;;;;;;;;5114677;28;19911;-76
2023/10/23 16:46:29;;;;;;;;;;;;;;;;;;5113263;28;19903;-75
2023/10/23 16:48:55;;;;;;;;;;;;;;;;;;5114056;28;19903;-77
2023/10/23 16:51:21;;;;;;;;;;;;;;;;;;5114318;28;19982;-75
2023/10/23 16:53:47;;;;;;;;;;;;;;;;;;5114307;28;19909;-75
2023/10/23 16:56:13;;;;;;;;;;;;;;;;;;5112777;28;20006;-75
2023/10/23 16:58:39;;;;;;;;;;;;;;;;;;5114473;28;19925;-75
2023/10/23 17:01:07;;;;;;;;;;;;;;;;;;5113956;28;19957;-75
2023/10/23 17:03:35;;;;;;;;;;;;;;;;;;5114393;28;20347;-76
2023/10/23 17:06:01;;;;;;;;;;;;;;;;;;5113027;28;19994;-75
2023/10/23 17:08:27;;;;;;;;;;;;;;;;;;5113944;28;20312;-76
2023/10/23 17:10:53;;;;;;;;;;;;;;;;;;5112733;28;20374;-75
2023/10/23 17:13:19;;;;;;;;;;;;;;;;;;5113851;28;19903;-75
2023/10/23 17:15:45;;;;;;;;;;;;;;;;;;5113828;28;19943;-75
2023/10/23 17:18:11;;;;;;;;;;;;;;;;;;5114205;28;19925;-75
2023/10/23 17:20:37;;;;;;;;;;;;;;;;;;5112877;28;19977;-75
2023/10/23 17:23:03;;;;;;;;;;;;;;;;;;5113700;28;19958;-76
2023/10/23 17:25:29;;;;;;;;;;;;;;;;;;5114163;28;19939;-75
2023/10/23 17:27:55;;;;;;;;;;;;;;;;;;5114232;28;19910;-76
2023/10/23 17:30:21;;;;;;;;;;;;;;;;;;5113694;28;20276;-75
2023/10/23 17:32:47;;;;;;;;;;;;;;;;;;5114348;28;19911;-76